sensor_id;sensor_type;location;lat;lon;timestamp;pressure;altitude;pressure_sealevel;temperature;humidity
8075;BME280;4080;42.676;23.372;2023-04-15T00:01:04;94326.66;;;8.12;100.00
8075;BME280;4080;42.676;23.372;2023-04-15T00:03:31;94328.25;;;8.02;100.00
8075;BME280;4080;42.676;23.372;2023-04-15T00:05:58;94332.97;;;8.05;100.00
8075;BME280;4080;42.676;23.372;2023-04-15T00:08:27;94331.91;;;8.12;100.00
8075;BME280;4080;42.676;23.372;2023-04-15T00:10:54;94347.13;;;8.15;100.00
8075;BME280;4080;42.676;23.372;2023-04-15T00:13:20;94369.72;;;8.16;100.00
8075;BME280;4080;42.676;23.372;2023-04-15T00:15:47;94373.63;;;8.18;100.00
8075;BME280;4080;42.676;23.372;2023-04-15T00:18:14;94359.19;;;8.21;100.00
8075;BME280;4080;42.676;23.372;2023-04-15T00:20:41;94355.75;;;8.30;100.00
8075;BME280;4080;42.676;23.372;2023-04-15T00:23:07;94351.56;;;8.34;100.00
8075;BME280;4080;42.676;23.372;2023-04-15T00:25:35;94353.13;;;8.35;100.00
8075;BME280;4080;42.676;23.372;2023-04-15T00:28:03;94326.88;;;8.15;100.00
8075;BME280;4080;42.676;23.372;2023-04-15T00:30:29;94338.94;;;8.21;100.00
8075;BME280;4080;42.676;23.372;2023-04-15T00:32:56;94347.59;;;8.32;100.00
8075;BME280;4080;42.676;23.372;2023-04-15T00:35:23;94348.66;;;8.36;100.00
8075;BME280;4080;42.676;23.372;2023-04-15T00:37:50;94353.63;;;8.37;100.00
8075;BME280;4080;42.676;23.372;2023-04-15T00:40:18;94353.63;;;8.37;100.00
8075;BME280;4080;42.676;23.372;2023-04-15T00:42:47;94352.59;;;8.28;100.00
8075;BME280;4080;42.676;23.372;2023-04-15T00:45:14;94359.19;;;8.21;100.00
8075;BME280;4080;42.676;23.372;2023-04-15T00:47:42;94350.03;;;8.08;100.00
8075;BME280;4080;42.676;23.372;2023-04-15T00:50:09;94356.38;;;7.97;100.00
8075;BME280;4080;42.676;23.372;2023-04-15T00:52:37;94368.97;;;7.95;100.00
8075;BME280;4080;42.676;23.372;2023-04-15T00:55:04;94365.81;;;7.93;100.00
8075;BME280;4080;42.676;23.372;2023-04-15T00:57:32;94364.25;;;7.92;100.00
8075;BME280;4080;42.676;23.372;2023-04-15T01:00:00;94359.00;;;7.92;100.00
8075;BME280;4080;42.676;23.372;2023-04-15T01:02:28;94362.94;;;7.94;100.00
8075;BME280;4080;42.676;23.372;2023-04-15T01:04:55;94372.38;;;7.95;100.00
8075;BME280;4080;42.676;23.372;2023-04-15T01:07:22;94375.28;;;7.89;100.00
8075;BME280;4080;42.676;23.372;2023-04-15T01:09:48;94365.06;;;7.82;100.00
8075;BME280;4080;42.676;23.372;2023-04-15T01:12:16;94364.25;;;7.87;100.00
8075;BME280;4080;42.676;23.372;2023-04-15T01:14:43;94363.19;;;7.93;100.00
8075;BME280;4080;42.676;23.372;2023-04-15T01:17:11;94353.75;;;7.97;100.00
8075;BME280;4080;42.676;23.372;2023-04-15T01:19:38;94361.63;;;8.02;100.00
8075;BME280;4080;42.676;23.372;2023-04-15T01:22:05;94325.41;;;7.84;100.00
8075;BME280;4080;42.676;23.372;2023-04-15T01:24:33;94352.66;;;8.08;100.00
8075;BME280;4080;42.676;23.372;2023-04-15T01:27:03;94350.28;;;8.12;100.00
8075;BME280;4080;42.676;23.372;2023-04-15T01:29:30;94340.03;;;8.10;100.00
8075;BME280;4080;42.676;23.372;2023-04-15T01:31:58;94321.94;;;8.03;100.00
8075;BME280;4080;42.676;23.372;2023-04-15T01:34:24;94342.16;;;8.08;100.00
8075;BME280;4080;42.676;23.372;2023-04-15T01:36:51;94350.06;;;8.03;100.00
8075;BME280;4080;42.676;23.372;2023-04-15T01:39:18;94351.66;;;7.99;100.00
8075;BME280;4080;42.676;23.372;2023-04-15T01:41:44;94341.13;;;7.94;100.00
8075;BME280;4080;42.676;23.372;2023-04-15T01:44:13;94350.56;;;8.10;100.00
8075;BME280;4080;42.676;23.372;2023-04-15T01:46:39;94363.66;;;8.15;100.00
8075;BME280;4080;42.676;23.372;2023-04-15T01:49:06;94353.94;;;8.16;100.00
8075;BME280;4080;42.676;23.372;2023-04-15T01:51:33;94366.03;;;8.17;100.00
8075;BME280;4080;42.676;23.372;2023-04-15T01:53:59;94368.91;;;8.15;100.00
8075;BME280;4080;42.676;23.372;2023-04-15T01:56:26;94373.66;;;8.13;100.00
8075;BME280;4080;42.676;23.372;2023-04-15T01:58:52;94378.38;;;8.11;100.00
8075;BME280;4080;42.676;23.372;2023-04-15T02:01:21;94376.06;;;7.99;100.00
8075;BME280;4080;42.676;23.372;2023-04-15T02:03:47;94383.16;;;7.99;100.00
8075;BME280;4080;42.676;23.372;2023-04-15T02:06:14;94376.59;;;7.96;100.00
8075;BME280;4080;42.676;23.372;2023-04-15T02:08:41;94383.16;;;7.99;100.00
8075;BME280;4080;42.676;23.372;2023-04-15T02:11:08;94373.16;;;8.01;100.00
8075;BME280;4080;42.676;23.372;2023-04-15T02:13:34;94373.69;;;7.93;100.00
8075;BME280;4080;42.676;23.372;2023-04-15T02:16:02;94330.19;;;7.66;100.00
8075;BME280;4080;42.676;23.372;2023-04-15T02:18:30;94372.63;;;7.94;100.00
8075;BME280;4080;42.676;23.372;2023-04-15T02:20:57;94359.78;;;7.87;100.00
8075;BME280;4080;42.676;23.372;2023-04-15T02:23:23;94362.69;;;7.81;100.00
8075;BME280;4080;42.676;23.372;2023-04-15T02:25:50;94358.00;;;7.77;100.00
8075;BME280;4080;42.676;23.372;2023-04-15T02:28:17;94349.59;;;7.70;100.00
8075;BME280;4080;42.676;23.372;2023-04-15T02:30:46;94362.72;;;7.60;100.00
8075;BME280;4080;42.676;23.372;2023-04-15T02:33:13;94316.03;;;7.32;100.00
8075;BME280;4080;42.676;23.372;2023-04-15T02:35:41;94353.81;;;7.56;100.00
8075;BME280;4080;42.676;23.372;2023-04-15T02:38:09;94352.75;;;7.57;100.00
8075;BME280;4080;42.676;23.372;2023-04-15T02:40:36;94344.63;;;7.54;100.00
8075;BME280;4080;42.676;23.372;2023-04-15T02:43:03;94349.88;;;7.48;100.00
8075;BME280;4080;42.676;23.372;2023-04-15T02:45:31;94343.84;;;7.18;100.00
8075;BME280;4080;42.676;23.372;2023-04-15T02:47:58;94367.19;;;7.29;100.00
8075;BME280;4080;42.676;23.372;2023-04-15T02:50:28;94357.50;;;7.20;100.00
8075;BME280;4080;42.676;23.372;2023-04-15T02:52:57;94360.66;;;7.11;100.00
8075;BME280;4080;42.676;23.372;2023-04-15T02:55:25;94391.56;;;6.99;100.00
8075;BME280;4080;42.676;23.372;2023-04-15T02:57:52;94373.41;;;6.72;100.00
8075;BME280;4080;42.676;23.372;2023-04-15T03:00:18;94385.16;;;6.54;100.00
8075;BME280;4080;42.676;23.372;2023-04-15T03:02:46;94359.84;;;6.13;100.00
8075;BME280;4080;42.676;23.372;2023-04-15T03:05:16;94391.50;;;6.11;100.00
8075;BME280;4080;42.676;23.372;2023-04-15T03:07:43;94382.28;;;5.99;100.00
8075;BME280;4080;42.676;23.372;2023-04-15T03:10:11;94377.28;;;5.92;100.00
8075;BME280;4080;42.676;23.372;2023-04-15T03:12:38;94384.59;;;5.90;100.00
8075;BME280;4080;42.676;23.372;2023-04-15T03:15:06;94385.63;;;5.89;100.00
8075;BME280;4080;42.676;23.372;2023-04-15T03:17:33;94382.66;;;5.80;100.00
8075;BME280;4080;42.676;23.372;2023-04-15T03:20:00;94393.88;;;5.71;100.00
8075;BME280;4080;42.676;23.372;2023-04-15T03:22:27;94396.44;;;5.60;100.00
8075;BME280;4080;42.676;23.372;2023-04-15T03:24:54;94397.63;;;5.48;100.00
8075;BME280;4080;42.676;23.372;2023-04-15T03:27:22;94394.72;;;5.44;100.00
8075;BME280;4080;42.676;23.372;2023-04-15T03:29:49;94390.81;;;5.47;100.00
8075;BME280;4080;42.676;23.372;2023-04-15T03:32:16;94403.69;;;5.53;100.00
8075;BME280;4080;42.676;23.372;2023-04-15T03:34:42;94406.50;;;5.47;100.00
8075;BME280;4080;42.676;23.372;2023-04-15T03:37:09;94400.50;;;5.46;100.00
8075;BME280;4080;42.676;23.372;2023-04-15T03:39:36;94403.59;;;5.43;100.00
8075;BME280;4080;42.676;23.372;2023-04-15T03:42:03;94407.91;;;5.22;100.00
8075;BME280;4080;42.676;23.372;2023-04-15T03:44:31;94404.03;;;5.30;100.00
8075;BME280;4080;42.676;23.372;2023-04-15T03:46:58;94411.66;;;5.37;100.00
8075;BME280;4080;42.676;23.372;2023-04-15T03:49:25;94427.91;;;5.39;100.00
8075;BME280;4080;42.676;23.372;2023-04-15T03:51:51;94426.34;;;5.43;100.00
8075;BME280;4080;42.676;23.372;2023-04-15T03:54:18;94434.78;;;5.50;100.00
8075;BME280;4080;42.676;23.372;2023-04-15T03:56:45;94424.91;;;5.57;100.00
8075;BME280;4080;42.676;23.372;2023-04-15T03:59:11;94430.44;;;5.60;100.00
8075;BME280;4080;42.676;23.372;2023-04-15T04:01:39;94423.94;;;5.68;100.00
8075;BME280;4080;42.676;23.372;2023-04-15T04:04:06;94433.44;;;5.79;100.00
8075;BME280;4080;42.676;23.372;2023-04-15T04:06:33;94421.38;;;5.78;100.00
8075;BME280;4080;42.676;23.372;2023-04-15T04:09:00;94439.91;;;6.04;100.00
8075;BME280;4080;42.676;23.372;2023-04-15T04:11:26;94454.22;;;6.33;100.00
8075;BME280;4080;42.676;23.372;2023-04-15T04:13:53;94445.53;;;6.85;100.00
8075;BME280;4080;42.676;23.372;2023-04-15T04:16:37;94437.03;;;7.66;100.00
8075;BME280;4080;42.676;23.372;2023-04-15T04:19:05;94441.44;;;7.91;100.00
8075;BME280;4080;42.676;23.372;2023-04-15T04:21:32;94445.91;;;7.60;100.00
8075;BME280;4080;42.676;23.372;2023-04-15T04:23:59;94402.06;;;7.04;100.00
8075;BME280;4080;42.676;23.372;2023-04-15T04:26:26;94442.72;;;7.17;100.00
8075;BME280;4080;42.676;23.372;2023-04-15T04:28:52;94445.88;;;7.19;100.00
8075;BME280;4080;42.676;23.372;2023-04-15T04:31:19;94443.03;;;7.46;100.00
8075;BME280;4080;42.676;23.372;2023-04-15T04:33:46;94439.88;;;7.90;100.00
8075;BME280;4080;42.676;23.372;2023-04-15T04:36:14;94447.16;;;8.44;100.00
8075;BME280;4080;42.676;23.372;2023-04-15T04:38:40;94453.00;;;9.00;100.00
8075;BME280;4080;42.676;23.372;2023-04-15T04:41:07;94454.28;;;9.52;100.00
8075;BME280;4080;42.676;23.372;2023-04-15T04:43:34;94454.66;;;10.03;100.00
8075;BME280;4080;42.676;23.372;2023-04-15T04:46:00;94467.44;;;10.49;100.00
8075;BME280;4080;42.676;23.372;2023-04-15T04:48:27;94475.75;;;10.85;100.00
8075;BME280;4080;42.676;23.372;2023-04-15T04:50:54;94483.03;;;11.17;100.00
8075;BME280;4080;42.676;23.372;2023-04-15T04:53:22;94483.69;;;11.46;100.00
8075;BME280;4080;42.676;23.372;2023-04-15T04:55:48;94483.63;;;11.70;100.00
8075;BME280;4080;42.676;23.372;2023-04-15T04:58:15;94497.09;;;12.06;100.00
8075;BME280;4080;42.676;23.372;2023-04-15T05:00:42;94499.66;;;12.44;100.00
8075;BME280;4080;42.676;23.372;2023-04-15T05:03:08;94505.38;;;12.65;99.71
8075;BME280;4080;42.676;23.372;2023-04-15T05:05:35;94504.19;;;12.71;99.23
8075;BME280;4080;42.676;23.372;2023-04-15T05:08:05;94508.31;;;12.77;99.37
8075;BME280;4080;42.676;23.372;2023-04-15T05:10:33;94506.97;;;12.93;98.58
8075;BME280;4080;42.676;23.372;2023-04-15T05:13:00;94521.06;;;13.16;96.40
8075;BME280;4080;42.676;23.372;2023-04-15T05:15:26;94522.75;;;13.40;94.60
8075;BME280;4080;42.676;23.372;2023-04-15T05:17:53;94527.16;;;13.58;93.07
8075;BME280;4080;42.676;23.372;2023-04-15T05:20:20;94535.59;;;13.60;89.78
8075;BME280;4080;42.676;23.372;2023-04-15T05:22:46;94534.63;;;13.42;92.65
8075;BME280;4080;42.676;23.372;2023-04-15T05:25:13;94527.84;;;13.50;94.54
8075;BME280;4080;42.676;23.372;2023-04-15T05:27:42;94530.66;;;13.67;92.06
8075;BME280;4080;42.676;23.372;2023-04-15T05:30:08;94532.56;;;13.89;90.75
8075;BME280;4080;42.676;23.372;2023-04-15T05:32:35;94527.81;;;13.99;87.72
8075;BME280;4080;42.676;23.372;2023-04-15T05:35:02;94527.81;;;13.99;89.83
8075;BME280;4080;42.676;23.372;2023-04-15T05:37:29;94530.72;;;14.12;88.44
8075;BME280;4080;42.676;23.372;2023-04-15T05:39:55;94532.56;;;14.34;88.09
8075;BME280;4080;42.676;23.372;2023-04-15T05:42:22;94534.63;;;14.37;84.47
8075;BME280;4080;42.676;23.372;2023-04-15T05:44:50;94530.50;;;14.44;82.88
8075;BME280;4080;42.676;23.372;2023-04-15T05:47:17;94524.81;;;14.59;81.06
8075;BME280;4080;42.676;23.372;2023-04-15T05:49:43;94531.69;;;14.60;79.74
8075;BME280;4080;42.676;23.372;2023-04-15T05:52:10;94532.75;;;14.82;79.93
8075;BME280;4080;42.676;23.372;2023-04-15T05:54:37;94537.28;;;14.81;78.61
8075;BME280;4080;42.676;23.372;2023-04-15T05:57:04;94533.00;;;14.72;78.99
8075;BME280;4080;42.676;23.372;2023-04-15T05:59:30;94545.56;;;14.88;78.11
8075;BME280;4080;42.676;23.372;2023-04-15T06:01:58;94556.94;;;15.11;78.01
8075;BME280;4080;42.676;23.372;2023-04-15T06:04:25;94548.00;;;15.07;77.05
8075;BME280;4080;42.676;23.372;2023-04-15T06:06:52;94555.97;;;15.07;75.77
8075;BME280;4080;42.676;23.372;2023-04-15T06:09:19;94561.28;;;15.07;75.48
8075;BME280;4080;42.676;23.372;2023-04-15T06:11:46;94553.84;;;15.27;76.69
8075;BME280;4080;42.676;23.372;2023-04-15T06:14:12;94558.31;;;15.57;76.28
8075;BME280;4080;42.676;23.372;2023-04-15T06:16:39;94561.84;;;15.75;75.32
8075;BME280;4080;42.676;23.372;2023-04-15T06:19:07;94563.56;;;15.79;75.21
8075;BME280;4080;42.676;23.372;2023-04-15T06:21:34;94565.78;;;15.95;74.82
8075;BME280;4080;42.676;23.372;2023-04-15T06:24:00;94569.53;;;16.11;74.81
8075;BME280;4080;42.676;23.372;2023-04-15T06:26:28;94561.09;;;16.26;73.09
8075;BME280;4080;42.676;23.372;2023-04-15T06:28:55;94565.78;;;16.38;71.20
8075;BME280;4080;42.676;23.372;2023-04-15T06:31:22;94571.56;;;16.40;70.68
8075;BME280;4080;42.676;23.372;2023-04-15T06:33:49;94583.78;;;16.50;72.24
8075;BME280;4080;42.676;23.372;2023-04-15T06:36:17;94583.00;;;16.58;71.70
8075;BME280;4080;42.676;23.372;2023-04-15T06:38:43;94589.25;;;16.79;70.74
8075;BME280;4080;42.676;23.372;2023-04-15T06:41:11;94586.25;;;16.81;70.14
8075;BME280;4080;42.676;23.372;2023-04-15T06:43:38;94592.84;;;16.83;70.09
8075;BME280;4080;42.676;23.372;2023-04-15T06:46:04;94589.38;;;16.91;71.40
8075;BME280;4080;42.676;23.372;2023-04-15T06:48:31;94587.34;;;16.97;70.28
8075;BME280;4080;42.676;23.372;2023-04-15T06:50:58;94591.22;;;17.17;69.57
8075;BME280;4080;42.676;23.372;2023-04-15T06:53:26;94596.19;;;17.27;69.32
8075;BME280;4080;42.676;23.372;2023-04-15T06:55:53;94601.75;;;17.43;69.70
8075;BME280;4080;42.676;23.372;2023-04-15T06:58:20;94592.78;;;17.56;69.06
8075;BME280;4080;42.676;23.372;2023-04-15T07:00:46;94600.88;;;17.68;68.63
8075;BME280;4080;42.676;23.372;2023-04-15T07:03:13;94578.78;;;17.59;68.15
8075;BME280;4080;42.676;23.372;2023-04-15T07:05:40;94591.19;;;17.93;67.22
8075;BME280;4080;42.676;23.372;2023-04-15T07:08:07;94591.41;;;18.09;65.74
8075;BME280;4080;42.676;23.372;2023-04-15T07:10:35;94598.56;;;18.17;67.35
8075;BME280;4080;42.676;23.372;2023-04-15T07:13:03;94596.34;;;18.19;66.88
8075;BME280;4080;42.676;23.372;2023-04-15T07:15:29;94567.16;;;17.93;65.35
8075;BME280;4080;42.676;23.372;2023-04-15T07:17:56;94592.63;;;18.11;64.81
8075;BME280;4080;42.676;23.372;2023-04-15T07:20:23;94562.81;;;17.88;67.08
8075;BME280;4080;42.676;23.372;2023-04-15T07:22:50;94599.81;;;18.40;67.65
8075;BME280;4080;42.676;23.372;2023-04-15T07:25:17;94562.63;;;18.14;65.30
8075;BME280;4080;42.676;23.372;2023-04-15T07:27:45;94590.81;;;18.45;64.92
8075;BME280;4080;42.676;23.372;2023-04-15T07:30:12;94599.59;;;18.24;63.21
8075;BME280;4080;42.676;23.372;2023-04-15T07:32:38;94597.91;;;18.20;66.31
8075;BME280;4080;42.676;23.372;2023-04-15T07:35:06;94604.94;;;18.45;65.41
8075;BME280;4080;42.676;23.372;2023-04-15T07:37:34;94600.50;;;18.28;64.56
8075;BME280;4080;42.676;23.372;2023-04-15T07:40:01;94599.75;;;18.07;65.74
8075;BME280;4080;42.676;23.372;2023-04-15T07:42:29;94597.56;;;18.00;67.27
8075;BME280;4080;42.676;23.372;2023-04-15T07:44:57;94594.88;;;18.00;66.95
8075;BME280;4080;42.676;23.372;2023-04-15T07:47:23;94596.78;;;18.00;66.85
8075;BME280;4080;42.676;23.372;2023-04-15T07:49:51;94601.00;;;18.01;67.10
8075;BME280;4080;42.676;23.372;2023-04-15T07:52:18;94607.13;;;17.72;66.19
8075;BME280;4080;42.676;23.372;2023-04-15T07:54:45;94611.56;;;17.59;67.28
8075;BME280;4080;42.676;23.372;2023-04-15T07:57:11;94611.16;;;17.87;67.97
8075;BME280;4080;42.676;23.372;2023-04-15T07:59:38;94619.06;;;18.25;66.78
8075;BME280;4080;42.676;23.372;2023-04-15T08:02:08;94621.53;;;18.51;67.03
8075;BME280;4080;42.676;23.372;2023-04-15T08:04:34;94616.72;;;18.86;63.63
8075;BME280;4080;42.676;23.372;2023-04-15T08:07:02;94614.59;;;18.91;62.71
8075;BME280;4080;42.676;23.372;2023-04-15T08:09:29;94623.97;;;18.98;62.37
8075;BME280;4080;42.676;23.372;2023-04-15T08:11:56;94616.47;;;19.24;63.70
8075;BME280;4080;42.676;23.372;2023-04-15T08:14:23;94567.22;;;19.25;62.19
8075;BME280;4080;42.676;23.372;2023-04-15T08:16:50;94621.91;;;19.73;61.92
8075;BME280;4080;42.676;23.372;2023-04-15T08:19:18;94624.94;;;19.96;58.70
8075;BME280;4080;42.676;23.372;2023-04-15T08:21:44;94622.78;;;20.26;58.22
8075;BME280;4080;42.676;23.372;2023-04-15T08:24:11;94620.06;;;20.38;55.95
8075;BME280;4080;42.676;23.372;2023-04-15T08:26:38;94627.22;;;20.46;56.57
8075;BME280;4080;42.676;23.372;2023-04-15T08:29:06;94625.06;;;20.64;56.79
8075;BME280;4080;42.676;23.372;2023-04-15T08:31:33;94618.28;;;20.54;55.73
8075;BME280;4080;42.676;23.372;2023-04-15T08:34:00;94612.09;;;20.66;56.24
8075;BME280;4080;42.676;23.372;2023-04-15T08:36:28;94605.41;;;20.60;51.70
8075;BME280;4080;42.676;23.372;2023-04-15T08:38:55;94608.63;;;20.65;51.88
8075;BME280;4080;42.676;23.372;2023-04-15T08:41:23;94603.91;;;20.74;52.75
8075;BME280;4080;42.676;23.372;2023-04-15T08:43:56;94600.69;;;20.97;55.33
8075;BME280;4080;42.676;23.372;2023-04-15T08:46:23;94600.31;;;20.83;54.84
8075;BME280;4080;42.676;23.372;2023-04-15T08:48:51;94592.41;;;20.74;53.63
8075;BME280;4080;42.676;23.372;2023-04-15T08:51:17;94606.53;;;20.87;52.77
8075;BME280;4080;42.676;23.372;2023-04-15T08:53:46;94594.72;;;21.03;53.48
8075;BME280;4080;42.676;23.372;2023-04-15T08:56:14;94597.22;;;20.96;53.92
8075;BME280;4080;42.676;23.372;2023-04-15T08:58:41;94599.84;;;20.81;54.74
8075;BME280;4080;42.676;23.372;2023-04-15T09:01:09;94597.81;;;20.62;51.00
8075;BME280;4080;42.676;23.372;2023-04-15T09:03:37;94585.72;;;20.40;50.08
8075;BME280;4080;42.676;23.372;2023-04-15T09:06:04;94575.00;;;20.40;51.00
8075;BME280;4080;42.676;23.372;2023-04-15T09:08:31;94578.72;;;20.23;46.49
8075;BME280;4080;42.676;23.372;2023-04-15T09:11:00;94581.16;;;20.28;50.10
8075;BME280;4080;42.676;23.372;2023-04-15T09:13:27;94518.66;;;19.84;50.47
8075;BME280;4080;42.676;23.372;2023-04-15T09:15:54;94531.97;;;20.21;49.24
8075;BME280;4080;42.676;23.372;2023-04-15T09:18:28;94563.75;;;20.62;49.36
8075;BME280;4080;42.676;23.372;2023-04-15T09:20:55;94526.13;;;20.31;46.72
8075;BME280;4080;42.676;23.372;2023-04-15T09:23:22;94553.22;;;20.69;46.08
8075;BME280;4080;42.676;23.372;2023-04-15T09:25:49;94546.75;;;20.70;46.16
8075;BME280;4080;42.676;23.372;2023-04-15T09:28:23;94560.66;;;20.60;44.69
8075;BME280;4080;42.676;23.372;2023-04-15T09:30:51;94562.13;;;20.45;45.90
8075;BME280;4080;42.676;23.372;2023-04-15T09:33:18;94553.88;;;20.38;45.59
8075;BME280;4080;42.676;23.372;2023-04-15T09:35:55;94551.94;;;20.23;45.26
8075;BME280;4080;42.676;23.372;2023-04-15T09:38:22;94556.91;;;20.37;44.92
8075;BME280;4080;42.676;23.372;2023-04-15T09:40:49;94561.56;;;20.52;46.28
8075;BME280;4080;42.676;23.372;2023-04-15T09:43:17;94561.66;;;20.56;44.45
8075;BME280;4080;42.676;23.372;2023-04-15T09:45:47;94557.97;;;20.60;44.88
8075;BME280;4080;42.676;23.372;2023-04-15T09:48:16;94546.06;;;20.73;44.45
8075;BME280;4080;42.676;23.372;2023-04-15T09:50:43;94517.63;;;20.41;42.23
8075;BME280;4080;42.676;23.372;2023-04-15T09:53:10;94560.47;;;20.53;41.97
8075;BME280;4080;42.676;23.372;2023-04-15T09:55:37;94563.78;;;20.50;42.38
8075;BME280;4080;42.676;23.372;2023-04-15T09:58:07;94572.75;;;20.42;43.16
8075;BME280;4080;42.676;23.372;2023-04-15T10:00:36;94552.53;;;20.44;42.37
8075;BME280;4080;42.676;23.372;2023-04-15T10:03:04;94565.13;;;20.56;41.51
8075;BME280;4080;42.676;23.372;2023-04-15T10:05:31;94557.34;;;20.39;42.26
8075;BME280;4080;42.676;23.372;2023-04-15T10:08:00;94560.34;;;20.50;42.15
8075;BME280;4080;42.676;23.372;2023-04-15T10:10:28;94555.56;;;20.43;40.85
8075;BME280;4080;42.676;23.372;2023-04-15T10:12:57;94537.69;;;20.47;42.11
8075;BME280;4080;42.676;23.372;2023-04-15T10:15:25;94548.13;;;20.64;42.34
8075;BME280;4080;42.676;23.372;2023-04-15T10:17:55;94543.38;;;20.73;40.94
8075;BME280;4080;42.676;23.372;2023-04-15T10:20:23;94536.06;;;20.86;41.48
8075;BME280;4080;42.676;23.372;2023-04-15T10:22:51;94536.06;;;21.02;40.79
8075;BME280;4080;42.676;23.372;2023-04-15T10:25:18;94538.88;;;21.21;39.60
8075;BME280;4080;42.676;23.372;2023-04-15T10:27:46;94528.13;;;21.21;37.51
8075;BME280;4080;42.676;23.372;2023-04-15T10:30:14;94525.09;;;20.91;37.81
8075;BME280;4080;42.676;23.372;2023-04-15T10:32:42;94512.97;;;20.82;38.69
8075;BME280;4080;42.676;23.372;2023-04-15T10:35:10;94521.72;;;21.10;41.74
8075;BME280;4080;42.676;23.372;2023-04-15T10:37:38;94522.69;;;21.33;41.36
8075;BME280;4080;42.676;23.372;2023-04-15T10:40:23;94517.88;;;21.23;39.66
8075;BME280;4080;42.676;23.372;2023-04-15T10:42:50;94511.88;;;21.14;41.47
8075;BME280;4080;42.676;23.372;2023-04-15T10:45:17;94515.50;;;21.06;42.22
8075;BME280;4080;42.676;23.372;2023-04-15T10:47:44;94511.38;;;20.65;42.48
8075;BME280;4080;42.676;23.372;2023-04-15T10:50:12;94506.59;;;20.30;42.94
8075;BME280;4080;42.676;23.372;2023-04-15T10:52:40;94529.84;;;20.14;43.64
8075;BME280;4080;42.676;23.372;2023-04-15T10:55:12;94515.44;;;19.78;43.53
8075;BME280;4080;42.676;23.372;2023-04-15T10:57:41;94490.38;;;19.46;44.07
8075;BME280;4080;42.676;23.372;2023-04-15T11:00:12;94514.69;;;19.66;44.12
8075;BME280;4080;42.676;23.372;2023-04-15T11:02:44;94517.41;;;19.94;44.36
8075;BME280;4080;42.676;23.372;2023-04-15T11:05:13;94523.09;;;20.32;42.39
8075;BME280;4080;42.676;23.372;2023-04-15T11:07:49;94488.69;;;20.46;41.38
8075;BME280;4080;42.676;23.372;2023-04-15T11:10:49;94514.44;;;21.11;40.07
8075;BME280;4080;42.676;23.372;2023-04-15T11:13:23;94512.25;;;21.28;39.60
8075;BME280;4080;42.676;23.372;2023-04-15T11:15:55;94497.34;;;21.15;39.11
8075;BME280;4080;42.676;23.372;2023-04-15T11:18:25;94507.66;;;21.29;39.85
8075;BME280;4080;42.676;23.372;2023-04-15T11:20:55;94490.78;;;21.13;39.42
8075;BME280;4080;42.676;23.372;2023-04-15T11:23:29;94498.00;;;21.12;38.83
8075;BME280;4080;42.676;23.372;2023-04-15T11:25:57;94484.09;;;20.91;39.48
8075;BME280;4080;42.676;23.372;2023-04-15T11:28:25;94499.56;;;20.82;39.49
8075;BME280;4080;42.676;23.372;2023-04-15T11:30:52;94495.81;;;20.70;39.96
8075;BME280;4080;42.676;23.372;2023-04-15T11:33:20;94506.28;;;20.75;39.04
8075;BME280;4080;42.676;23.372;2023-04-15T11:35:48;94502.50;;;20.49;39.87
8075;BME280;4080;42.676;23.372;2023-04-15T11:38:16;94504.31;;;20.44;39.85
8075;BME280;4080;42.676;23.372;2023-04-15T11:40:43;94470.38;;;20.21;41.16
8075;BME280;4080;42.676;23.372;2023-04-15T11:43:12;94503.50;;;20.56;41.58
8075;BME280;4080;42.676;23.372;2023-04-15T11:45:48;94428.19;;;20.17;40.50
8075;BME280;4080;42.676;23.372;2023-04-15T11:48:16;94507.44;;;20.90;40.08
8075;BME280;4080;42.676;23.372;2023-04-15T11:50:43;94493.88;;;20.99;40.19
8075;BME280;4080;42.676;23.372;2023-04-15T11:53:12;94485.72;;;21.11;38.67
8075;BME280;4080;42.676;23.372;2023-04-15T11:55:44;94473.97;;;20.84;34.77
8075;BME280;4080;42.676;23.372;2023-04-15T11:58:13;94485.75;;;20.95;32.21
8075;BME280;4080;42.676;23.372;2023-04-15T12:00:47;94482.97;;;20.92;32.86
8075;BME280;4080;42.676;23.372;2023-04-15T12:03:17;94452.59;;;20.72;31.79
8075;BME280;4080;42.676;23.372;2023-04-15T12:06:18;94474.59;;;20.93;34.16
8075;BME280;4080;42.676;23.372;2023-04-15T12:09:03;94478.31;;;20.89;34.02
8075;BME280;4080;42.676;23.372;2023-04-15T12:11:36;94477.34;;;20.97;32.14
8075;BME280;4080;42.676;23.372;2023-04-15T12:14:06;94480.00;;;20.81;33.93
8075;BME280;4080;42.676;23.372;2023-04-15T12:16:34;94486.66;;;20.15;38.16
8075;BME280;4080;42.676;23.372;2023-04-15T12:19:04;94490.59;;;19.41;40.89
8075;BME280;4080;42.676;23.372;2023-04-15T12:21:36;94484.13;;;19.54;40.55
8075;BME280;4080;42.676;23.372;2023-04-15T12:24:04;94480.34;;;19.68;35.71
8075;BME280;4080;42.676;23.372;2023-04-15T12:26:35;94482.41;;;19.87;35.71
8075;BME280;4080;42.676;23.372;2023-04-15T12:29:03;94466.28;;;20.11;33.69
8075;BME280;4080;42.676;23.372;2023-04-15T12:31:31;94482.97;;;20.20;30.69
8075;BME280;4080;42.676;23.372;2023-04-15T12:33:58;94489.63;;;19.98;31.52
8075;BME280;4080;42.676;23.372;2023-04-15T12:36:26;94474.06;;;19.76;33.30
8075;BME280;4080;42.676;23.372;2023-04-15T12:38:54;94484.72;;;20.00;33.27
8075;BME280;4080;42.676;23.372;2023-04-15T12:41:22;94488.81;;;20.10;32.56
8075;BME280;4080;42.676;23.372;2023-04-15T12:43:51;94489.00;;;20.17;32.89
8075;BME280;4080;42.676;23.372;2023-04-15T12:46:17;94486.47;;;20.36;32.54
8075;BME280;4080;42.676;23.372;2023-04-15T12:48:44;94448.81;;;20.01;32.58
8075;BME280;4080;42.676;23.372;2023-04-15T12:51:11;94482.13;;;20.44;32.95
8075;BME280;4080;42.676;23.372;2023-04-15T12:53:38;94497.19;;;20.64;32.72
8075;BME280;4080;42.676;23.372;2023-04-15T12:56:04;94488.03;;;20.81;33.53
8075;BME280;4080;42.676;23.372;2023-04-15T12:58:32;94492.13;;;20.91;31.61
8075;BME280;4080;42.676;23.372;2023-04-15T13:01:00;94486.31;;;20.57;32.11
8075;BME280;4080;42.676;23.372;2023-04-15T13:03:27;94488.59;;;20.43;33.73
8075;BME280;4080;42.676;23.372;2023-04-15T13:05:53;94492.88;;;20.60;33.49
8075;BME280;4080;42.676;23.372;2023-04-15T13:08:22;94487.88;;;20.74;32.81
8075;BME280;4080;42.676;23.372;2023-04-15T13:10:49;94478.63;;;20.71;32.66
8075;BME280;4080;42.676;23.372;2023-04-15T13:13:15;94489.91;;;20.49;32.54